LAKE NATOMA (NIMBUS DAM) (NAT)

Elevation: 132' · AMERICAN R basin · Operator: US Bureau of Reclamation

Provisional data, subject to change.
Query executed Tuesday at 9:42:15   clock

Select a sensor type for a plot of data.
Note: Reservoir Flows are daily averages.

Earlier

Date RES ELE    STORAGE    RES CHG    OUTFLOW    INFLOW    SPILL    DIS PWR   
 FEET   AF   AF   CFS   CFS   CFS   CFS  
05/31/2015 122.44 7539 -473 2007 1769 0 1907
06/01/2015 123.31 7937 398 2006 2207 0 1906
06/02/2015 123.07 7824 -113 1999 1942 0 1906
06/03/2015 123.27 7918 94 1993 2040 0 1905
06/04/2015 123.44 7998 80 2003 2043 650 1265
06/05/2015 124.12 8321 323 1965 2128 924 953
06/06/2015 123.92 8223 -98 1996 1947 0 1908
06/07/2015 123.78 8158 -65 1997 1964 0 1909
06/08/2015 123.60 8073 -85 1994 1951 0 1906
06/09/2015 123.61 8078 5 2021 2024 0 1933
06/10/2015 123.14 7857 -221 2017 1906 0 1929
06/11/2015 122.97 7778 -79 1994 1954 0 1906
06/12/2015 123.01 7796 18 1994 2003 0 1906
06/13/2015 123.28 7923 127 1995 2059 0 1907
06/14/2015 123.20 7885 -38 1997 1978 0 1909
06/15/2015 123.16 7866 -19 1994 1984 0 1906
06/16/2015 121.29 7043 -823 2473 2058 0 2385
06/17/2015 123.14 7857 814 2493 2903 0 2405
06/18/2015 124.43 8476 619 2494 2806 0 2406
06/19/2015 124.00 8261 -215 2493 2385 0 2405
06/20/2015 124.23 8376 115 2780 2838 0 2692
06/21/2015 123.62 8082 -294 2813 2665 0 2725
06/22/2015 123.53 8040 -42 2691 2670 0 2603
06/23/2015 123.71 8125 85 2639 2682 0 2551
06/24/2015 124.02 8271 146 2615 2695 0 2527
06/25/2015 124.27 8396 125 2611 2679 0 2523
06/26/2015 124.05 8286 -110 2626 2576 0 2547
06/27/2015 124.16 8341 55 2617 2649 0 2547
06/28/2015 123.76 8148 -193 2622 2529 0 2549
06/29/2015 122.98 7782 -366 2627 2446 0 2552
06/30/2015 -- -- -- -- -- -- --

Later | Latest

Warning! This data is preliminary and subject to revision.

Show NAT Map | Plot NAT Data | 1 Month NAT Data | Real-Time NAT Data | NAT Info